sensor_id;sensor_type;location;lat;lon;timestamp;temperature;humidity
19248;DHT22;9758;48.640;8.148;2023-08-31T00:02:01;17.70;55.80
19248;DHT22;9758;48.640;8.148;2023-08-31T00:04:29;17.60;55.80
19248;DHT22;9758;48.640;8.148;2023-08-31T00:06:55;17.60;55.90
19248;DHT22;9758;48.640;8.148;2023-08-31T00:09:22;17.60;55.90
19248;DHT22;9758;48.640;8.148;2023-08-31T00:11:50;17.60;55.90
19248;DHT22;9758;48.640;8.148;2023-08-31T00:14:18;17.60;55.90
19248;DHT22;9758;48.640;8.148;2023-08-31T00:16:44;17.60;55.90
19248;DHT22;9758;48.640;8.148;2023-08-31T00:19:12;17.60;55.90
19248;DHT22;9758;48.640;8.148;2023-08-31T00:21:40;17.60;55.90
19248;DHT22;9758;48.640;8.148;2023-08-31T00:24:07;17.50;55.80
19248;DHT22;9758;48.640;8.148;2023-08-31T00:26:35;17.50;55.90
19248;DHT22;9758;48.640;8.148;2023-08-31T00:29:09;17.50;55.90
19248;DHT22;9758;48.640;8.148;2023-08-31T00:31:36;17.40;55.90
19248;DHT22;9758;48.640;8.148;2023-08-31T00:34:03;17.40;55.90
19248;DHT22;9758;48.640;8.148;2023-08-31T00:36:30;17.30;56.00
19248;DHT22;9758;48.640;8.148;2023-08-31T00:38:56;17.30;55.90
19248;DHT22;9758;48.640;8.148;2023-08-31T00:41:23;17.20;55.90
19248;DHT22;9758;48.640;8.148;2023-08-31T00:43:50;17.20;56.00
19248;DHT22;9758;48.640;8.148;2023-08-31T00:46:18;17.10;56.00
19248;DHT22;9758;48.640;8.148;2023-08-31T00:48:45;17.10;56.10
19248;DHT22;9758;48.640;8.148;2023-08-31T00:51:12;17.10;56.10
19248;DHT22;9758;48.640;8.148;2023-08-31T00:53:39;17.00;56.10
19248;DHT22;9758;48.640;8.148;2023-08-31T00:56:07;17.00;56.20
19248;DHT22;9758;48.640;8.148;2023-08-31T00:58:34;17.00;56.30
19248;DHT22;9758;48.640;8.148;2023-08-31T01:01:06;17.00;56.40
19248;DHT22;9758;48.640;8.148;2023-08-31T01:03:42;17.00;56.50
19248;DHT22;9758;48.640;8.148;2023-08-31T01:06:21;16.90;56.50
19248;DHT22;9758;48.640;8.148;2023-08-31T01:08:57;17.00;56.50
19248;DHT22;9758;48.640;8.148;2023-08-31T01:11:31;17.00;56.60
19248;DHT22;9758;48.640;8.148;2023-08-31T01:14:02;17.00;56.60
19248;DHT22;9758;48.640;8.148;2023-08-31T01:16:33;17.00;56.60
19248;DHT22;9758;48.640;8.148;2023-08-31T01:19:05;17.00;56.60
19248;DHT22;9758;48.640;8.148;2023-08-31T01:21:39;17.00;56.60
19248;DHT22;9758;48.640;8.148;2023-08-31T01:24:09;17.00;56.60
19248;DHT22;9758;48.640;8.148;2023-08-31T01:26:36;17.10;56.60
19248;DHT22;9758;48.640;8.148;2023-08-31T01:29:04;17.10;56.60
19248;DHT22;9758;48.640;8.148;2023-08-31T01:31:31;17.10;56.60
19248;DHT22;9758;48.640;8.148;2023-08-31T01:33:57;17.10;56.60
19248;DHT22;9758;48.640;8.148;2023-08-31T01:36:27;17.10;56.60
19248;DHT22;9758;48.640;8.148;2023-08-31T01:38:58;17.10;56.60
19248;DHT22;9758;48.640;8.148;2023-08-31T01:41:37;17.10;56.60
19248;DHT22;9758;48.640;8.148;2023-08-31T01:44:08;17.10;56.60
19248;DHT22;9758;48.640;8.148;2023-08-31T01:46:40;17.10;56.60
19248;DHT22;9758;48.640;8.148;2023-08-31T01:49:07;17.10;56.60
19248;DHT22;9758;48.640;8.148;2023-08-31T01:51:34;17.20;56.60
19248;DHT22;9758;48.640;8.148;2023-08-31T01:54:01;17.20;56.60
19248;DHT22;9758;48.640;8.148;2023-08-31T01:56:29;17.20;56.60
19248;DHT22;9758;48.640;8.148;2023-08-31T01:58:57;17.20;56.70
19248;DHT22;9758;48.640;8.148;2023-08-31T02:01:23;17.20;56.60
19248;DHT22;9758;48.640;8.148;2023-08-31T02:03:50;17.10;56.70
19248;DHT22;9758;48.640;8.148;2023-08-31T02:06:17;17.10;56.70
19248;DHT22;9758;48.640;8.148;2023-08-31T02:08:44;17.10;56.70
19248;DHT22;9758;48.640;8.148;2023-08-31T02:11:13;17.10;56.70
19248;DHT22;9758;48.640;8.148;2023-08-31T02:13:40;17.10;56.70
19248;DHT22;9758;48.640;8.148;2023-08-31T02:16:08;17.10;56.70
19248;DHT22;9758;48.640;8.148;2023-08-31T02:18:35;17.10;56.70
19248;DHT22;9758;48.640;8.148;2023-08-31T02:21:02;17.20;56.80
19248;DHT22;9758;48.640;8.148;2023-08-31T02:23:29;17.10;56.70
19248;DHT22;9758;48.640;8.148;2023-08-31T02:25:56;17.20;56.80
19248;DHT22;9758;48.640;8.148;2023-08-31T02:28:23;17.10;56.80
19248;DHT22;9758;48.640;8.148;2023-08-31T02:30:57;17.10;56.80
19248;DHT22;9758;48.640;8.148;2023-08-31T02:33:26;17.10;56.90
19248;DHT22;9758;48.640;8.148;2023-08-31T02:35:54;17.10;56.80
19248;DHT22;9758;48.640;8.148;2023-08-31T02:38:21;17.10;56.90
19248;DHT22;9758;48.640;8.148;2023-08-31T02:40:48;17.10;56.90
19248;DHT22;9758;48.640;8.148;2023-08-31T02:43:15;17.20;56.90
19248;DHT22;9758;48.640;8.148;2023-08-31T02:45:42;17.20;56.90
19248;DHT22;9758;48.640;8.148;2023-08-31T02:48:09;17.10;56.90
19248;DHT22;9758;48.640;8.148;2023-08-31T02:50:38;17.10;56.90
19248;DHT22;9758;48.640;8.148;2023-08-31T02:53:05;17.10;56.90
19248;DHT22;9758;48.640;8.148;2023-08-31T02:55:32;17.20;57.00
19248;DHT22;9758;48.640;8.148;2023-08-31T02:57:59;17.10;56.90
19248;DHT22;9758;48.640;8.148;2023-08-31T03:00:26;17.10;56.90
19248;DHT22;9758;48.640;8.148;2023-08-31T03:02:53;17.10;56.90
19248;DHT22;9758;48.640;8.148;2023-08-31T03:05:20;17.20;56.90
19248;DHT22;9758;48.640;8.148;2023-08-31T03:07:49;17.10;56.90
19248;DHT22;9758;48.640;8.148;2023-08-31T03:10:16;17.10;56.90
19248;DHT22;9758;48.640;8.148;2023-08-31T03:12:42;17.20;57.00
19248;DHT22;9758;48.640;8.148;2023-08-31T03:15:09;17.10;56.90
19248;DHT22;9758;48.640;8.148;2023-08-31T03:17:36;17.20;57.00
19248;DHT22;9758;48.640;8.148;2023-08-31T03:20:03;17.20;56.90
19248;DHT22;9758;48.640;8.148;2023-08-31T03:22:31;17.20;56.90
19248;DHT22;9758;48.640;8.148;2023-08-31T03:24:59;17.20;56.90
19248;DHT22;9758;48.640;8.148;2023-08-31T03:27:26;17.20;57.00
19248;DHT22;9758;48.640;8.148;2023-08-31T03:29:53;17.20;57.00
19248;DHT22;9758;48.640;8.148;2023-08-31T03:32:20;17.20;57.00
19248;DHT22;9758;48.640;8.148;2023-08-31T03:34:47;17.20;56.90
19248;DHT22;9758;48.640;8.148;2023-08-31T03:37:13;17.20;56.90
19248;DHT22;9758;48.640;8.148;2023-08-31T03:39:40;17.20;57.00
19248;DHT22;9758;48.640;8.148;2023-08-31T03:42:09;17.20;57.00
19248;DHT22;9758;48.640;8.148;2023-08-31T03:44:36;17.20;56.90
19248;DHT22;9758;48.640;8.148;2023-08-31T03:47:04;17.20;57.00
19248;DHT22;9758;48.640;8.148;2023-08-31T03:49:38;17.20;57.00
19248;DHT22;9758;48.640;8.148;2023-08-31T03:52:05;17.20;56.90
19248;DHT22;9758;48.640;8.148;2023-08-31T03:54:34;17.20;57.00
19248;DHT22;9758;48.640;8.148;2023-08-31T03:57:01;17.10;56.90
19248;DHT22;9758;48.640;8.148;2023-08-31T03:59:30;17.10;57.00
19248;DHT22;9758;48.640;8.148;2023-08-31T04:01:56;17.10;57.00
19248;DHT22;9758;48.640;8.148;2023-08-31T04:04:24;17.20;57.00
19248;DHT22;9758;48.640;8.148;2023-08-31T04:06:51;17.20;57.00
19248;DHT22;9758;48.640;8.148;2023-08-31T04:09:17;17.20;57.00
19248;DHT22;9758;48.640;8.148;2023-08-31T04:11:45;17.20;57.00
19248;DHT22;9758;48.640;8.148;2023-08-31T04:14:12;17.10;56.90
19248;DHT22;9758;48.640;8.148;2023-08-31T04:16:40;17.10;57.00
19248;DHT22;9758;48.640;8.148;2023-08-31T04:19:07;17.10;57.00
19248;DHT22;9758;48.640;8.148;2023-08-31T04:21:34;17.10;56.90
19248;DHT22;9758;48.640;8.148;2023-08-31T04:24:01;17.10;57.00
19248;DHT22;9758;48.640;8.148;2023-08-31T04:26:28;17.10;57.00
19248;DHT22;9758;48.640;8.148;2023-08-31T04:28:55;17.00;57.00
19248;DHT22;9758;48.640;8.148;2023-08-31T04:31:21;17.00;57.10
19248;DHT22;9758;48.640;8.148;2023-08-31T04:33:50;17.00;57.10
19248;DHT22;9758;48.640;8.148;2023-08-31T04:36:19;17.00;57.10
19248;DHT22;9758;48.640;8.148;2023-08-31T04:38:46;17.00;57.20
19248;DHT22;9758;48.640;8.148;2023-08-31T04:41:14;17.00;57.20
19248;DHT22;9758;48.640;8.148;2023-08-31T04:43:41;17.00;57.20
19248;DHT22;9758;48.640;8.148;2023-08-31T04:46:08;17.00;57.10
19248;DHT22;9758;48.640;8.148;2023-08-31T04:48:35;17.00;57.20
19248;DHT22;9758;48.640;8.148;2023-08-31T04:51:03;17.00;57.20
19248;DHT22;9758;48.640;8.148;2023-08-31T04:53:30;16.90;57.20
19248;DHT22;9758;48.640;8.148;2023-08-31T04:55:57;17.00;57.30
19248;DHT22;9758;48.640;8.148;2023-08-31T04:58:24;16.90;57.20
19248;DHT22;9758;48.640;8.148;2023-08-31T05:00:52;17.00;57.20
19248;DHT22;9758;48.640;8.148;2023-08-31T05:03:18;16.90;57.20
19248;DHT22;9758;48.640;8.148;2023-08-31T05:05:45;17.00;57.30
19248;DHT22;9758;48.640;8.148;2023-08-31T05:08:13;16.90;57.20
19248;DHT22;9758;48.640;8.148;2023-08-31T05:10:40;17.00;57.30
19248;DHT22;9758;48.640;8.148;2023-08-31T05:13:07;17.00;57.20
19248;DHT22;9758;48.640;8.148;2023-08-31T05:15:34;17.00;57.30
19248;DHT22;9758;48.640;8.148;2023-08-31T05:18:02;17.00;57.30
19248;DHT22;9758;48.640;8.148;2023-08-31T05:20:30;17.00;57.30
19248;DHT22;9758;48.640;8.148;2023-08-31T05:22:58;17.00;57.30
19248;DHT22;9758;48.640;8.148;2023-08-31T05:25:26;17.00;57.30
19248;DHT22;9758;48.640;8.148;2023-08-31T05:27:53;17.00;57.20
19248;DHT22;9758;48.640;8.148;2023-08-31T05:30:20;17.00;57.20
19248;DHT22;9758;48.640;8.148;2023-08-31T05:32:47;17.00;57.20
19248;DHT22;9758;48.640;8.148;2023-08-31T05:35:14;17.00;57.30
19248;DHT22;9758;48.640;8.148;2023-08-31T05:37:41;17.00;57.40
19248;DHT22;9758;48.640;8.148;2023-08-31T05:40:09;17.00;57.40
19248;DHT22;9758;48.640;8.148;2023-08-31T05:42:40;17.00;57.40
19248;DHT22;9758;48.640;8.148;2023-08-31T05:45:07;17.10;57.40
19248;DHT22;9758;48.640;8.148;2023-08-31T05:47:34;17.10;57.30
19248;DHT22;9758;48.640;8.148;2023-08-31T05:50:01;17.10;57.30
19248;DHT22;9758;48.640;8.148;2023-08-31T05:52:30;17.10;57.30
19248;DHT22;9758;48.640;8.148;2023-08-31T05:54:57;17.10;57.40
19248;DHT22;9758;48.640;8.148;2023-08-31T05:57:26;17.10;57.30
19248;DHT22;9758;48.640;8.148;2023-08-31T05:59:57;17.20;57.40
19248;DHT22;9758;48.640;8.148;2023-08-31T06:02:24;17.20;57.40
19248;DHT22;9758;48.640;8.148;2023-08-31T06:04:50;17.20;57.30
19248;DHT22;9758;48.640;8.148;2023-08-31T06:07:17;17.20;57.30
19248;DHT22;9758;48.640;8.148;2023-08-31T06:09:44;17.20;57.40
19248;DHT22;9758;48.640;8.148;2023-08-31T06:12:11;17.30;57.40
19248;DHT22;9758;48.640;8.148;2023-08-31T06:14:38;17.30;57.30
19248;DHT22;9758;48.640;8.148;2023-08-31T06:17:06;17.30;57.40
19248;DHT22;9758;48.640;8.148;2023-08-31T06:19:37;17.30;57.30
19248;DHT22;9758;48.640;8.148;2023-08-31T06:22:04;17.40;57.40
19248;DHT22;9758;48.640;8.148;2023-08-31T06:24:31;17.50;57.30
19248;DHT22;9758;48.640;8.148;2023-08-31T06:26:58;17.40;57.20
19248;DHT22;9758;48.640;8.148;2023-08-31T06:29:28;17.60;57.30
19248;DHT22;9758;48.640;8.148;2023-08-31T06:31:55;17.60;57.30
19248;DHT22;9758;48.640;8.148;2023-08-31T06:34:23;17.60;57.20
19248;DHT22;9758;48.640;8.148;2023-08-31T06:36:50;17.70;57.20
19248;DHT22;9758;48.640;8.148;2023-08-31T06:39:17;17.70;57.10
19248;DHT22;9758;48.640;8.148;2023-08-31T06:41:43;17.80;57.00
19248;DHT22;9758;48.640;8.148;2023-08-31T06:44:10;17.80;57.00
19248;DHT22;9758;48.640;8.148;2023-08-31T06:46:37;17.90;57.00
19248;DHT22;9758;48.640;8.148;2023-08-31T06:49:04;18.00;57.10
19248;DHT22;9758;48.640;8.148;2023-08-31T06:51:33;18.10;57.10
19248;DHT22;9758;48.640;8.148;2023-08-31T06:54:00;18.20;57.10
19248;DHT22;9758;48.640;8.148;2023-08-31T06:56:31;18.30;57.00
19248;DHT22;9758;48.640;8.148;2023-08-31T06:58:59;18.30;56.70
19248;DHT22;9758;48.640;8.148;2023-08-31T07:01:28;18.40;56.60
19248;DHT22;9758;48.640;8.148;2023-08-31T07:03:55;18.40;56.50
19248;DHT22;9758;48.640;8.148;2023-08-31T07:06:28;18.50;56.50
19248;DHT22;9758;48.640;8.148;2023-08-31T07:08:56;18.50;56.30
19248;DHT22;9758;48.640;8.148;2023-08-31T07:11:23;18.60;56.20
19248;DHT22;9758;48.640;8.148;2023-08-31T07:13:50;18.60;56.10
19248;DHT22;9758;48.640;8.148;2023-08-31T07:16:17;18.60;56.10
19248;DHT22;9758;48.640;8.148;2023-08-31T07:18:44;18.70;56.00
19248;DHT22;9758;48.640;8.148;2023-08-31T07:21:11;18.70;55.90
19248;DHT22;9758;48.640;8.148;2023-08-31T07:23:39;18.70;55.80
19248;DHT22;9758;48.640;8.148;2023-08-31T07:26:07;18.70;55.70
19248;DHT22;9758;48.640;8.148;2023-08-31T07:28:34;18.80;55.70
19248;DHT22;9758;48.640;8.148;2023-08-31T07:31:02;18.80;55.70
19248;DHT22;9758;48.640;8.148;2023-08-31T07:33:30;18.90;55.60
19248;DHT22;9758;48.640;8.148;2023-08-31T07:35:58;18.90;55.70
19248;DHT22;9758;48.640;8.148;2023-08-31T07:38:25;19.00;55.60
19248;DHT22;9758;48.640;8.148;2023-08-31T07:40:53;19.10;55.50
19248;DHT22;9758;48.640;8.148;2023-08-31T07:43:21;19.20;55.30
19248;DHT22;9758;48.640;8.148;2023-08-31T07:45:48;19.20;55.30
19248;DHT22;9758;48.640;8.148;2023-08-31T07:48:15;19.30;55.20
19248;DHT22;9758;48.640;8.148;2023-08-31T07:50:42;19.30;55.10
19248;DHT22;9758;48.640;8.148;2023-08-31T07:53:11;19.40;55.10
19248;DHT22;9758;48.640;8.148;2023-08-31T07:55:39;19.40;55.10
19248;DHT22;9758;48.640;8.148;2023-08-31T07:58:12;19.50;55.00
19248;DHT22;9758;48.640;8.148;2023-08-31T08:11:29;19.60;55.00
19248;DHT22;9758;48.640;8.148;2023-08-31T08:13:57;20.00;55.80
19248;DHT22;9758;48.640;8.148;2023-08-31T08:16:24;20.10;55.40
19248;DHT22;9758;48.640;8.148;2023-08-31T08:18:51;20.10;55.00
19248;DHT22;9758;48.640;8.148;2023-08-31T08:21:18;20.20;54.90
19248;DHT22;9758;48.640;8.148;2023-08-31T08:23:45;20.20;54.60
19248;DHT22;9758;48.640;8.148;2023-08-31T08:26:13;20.20;54.50
19248;DHT22;9758;48.640;8.148;2023-08-31T08:28:41;20.20;54.50
19248;DHT22;9758;48.640;8.148;2023-08-31T08:31:08;20.10;53.70
19248;DHT22;9758;48.640;8.148;2023-08-31T08:33:35;20.00;54.10
19248;DHT22;9758;48.640;8.148;2023-08-31T08:36:02;20.00;54.60
19248;DHT22;9758;48.640;8.148;2023-08-31T08:38:29;20.00;54.70
19248;DHT22;9758;48.640;8.148;2023-08-31T08:40:56;20.10;54.70
19248;DHT22;9758;48.640;8.148;2023-08-31T08:43:26;20.10;54.50
19248;DHT22;9758;48.640;8.148;2023-08-31T08:45:54;20.20;54.40
19248;DHT22;9758;48.640;8.148;2023-08-31T08:48:26;20.30;54.30
19248;DHT22;9758;48.640;8.148;2023-08-31T08:50:54;20.30;54.30
19248;DHT22;9758;48.640;8.148;2023-08-31T08:53:24;20.40;54.30
19248;DHT22;9758;48.640;8.148;2023-08-31T08:55:53;20.40;54.20
19248;DHT22;9758;48.640;8.148;2023-08-31T08:58:20;20.50;54.20
19248;DHT22;9758;48.640;8.148;2023-08-31T09:00:47;20.60;53.80
19248;DHT22;9758;48.640;8.148;2023-08-31T09:03:16;20.60;53.70
19248;DHT22;9758;48.640;8.148;2023-08-31T09:05:43;20.70;53.40
19248;DHT22;9758;48.640;8.148;2023-08-31T09:08:10;20.60;53.00
19248;DHT22;9758;48.640;8.148;2023-08-31T09:10:39;20.50;53.30
19248;DHT22;9758;48.640;8.148;2023-08-31T09:13:07;20.50;53.30
19248;DHT22;9758;48.640;8.148;2023-08-31T09:15:42;20.40;53.60
19248;DHT22;9758;48.640;8.148;2023-08-31T09:18:16;20.40;53.50
19248;DHT22;9758;48.640;8.148;2023-08-31T09:20:44;20.40;53.70
19248;DHT22;9758;48.640;8.148;2023-08-31T09:23:10;20.40;53.50
19248;DHT22;9758;48.640;8.148;2023-08-31T09:25:41;20.40;53.20
19248;DHT22;9758;48.640;8.148;2023-08-31T09:28:09;20.30;53.50
19248;DHT22;9758;48.640;8.148;2023-08-31T09:30:46;20.30;53.30
19248;DHT22;9758;48.640;8.148;2023-08-31T09:33:16;20.40;53.60
19248;DHT22;9758;48.640;8.148;2023-08-31T09:35:47;20.40;53.80
19248;DHT22;9758;48.640;8.148;2023-08-31T09:38:15;20.60;53.30
19248;DHT22;9758;48.640;8.148;2023-08-31T09:40:42;20.60;53.50
19248;DHT22;9758;48.640;8.148;2023-08-31T09:43:09;20.70;53.20
19248;DHT22;9758;48.640;8.148;2023-08-31T09:45:36;20.80;53.10
19248;DHT22;9758;48.640;8.148;2023-08-31T09:48:04;20.80;53.10
19248;DHT22;9758;48.640;8.148;2023-08-31T09:50:33;20.80;53.00
19248;DHT22;9758;48.640;8.148;2023-08-31T09:53:02;20.80;52.70
19248;DHT22;9758;48.640;8.148;2023-08-31T09:55:31;20.90;53.10
19248;DHT22;9758;48.640;8.148;2023-08-31T09:58:00;20.90;53.10
19248;DHT22;9758;48.640;8.148;2023-08-31T10:00:29;21.00;53.10
19248;DHT22;9758;48.640;8.148;2023-08-31T10:02:58;21.10;53.00
19248;DHT22;9758;48.640;8.148;2023-08-31T10:05:25;21.20;53.00
19248;DHT22;9758;48.640;8.148;2023-08-31T10:07:54;21.30;52.80
19248;DHT22;9758;48.640;8.148;2023-08-31T10:10:21;21.30;52.70
19248;DHT22;9758;48.640;8.148;2023-08-31T10:12:49;21.30;52.80
19248;DHT22;9758;48.640;8.148;2023-08-31T10:15:17;21.40;52.90
19248;DHT22;9758;48.640;8.148;2023-08-31T10:17:44;21.50;52.90
19248;DHT22;9758;48.640;8.148;2023-08-31T10:20:13;21.50;52.80
19248;DHT22;9758;48.640;8.148;2023-08-31T10:22:41;21.60;52.70
19248;DHT22;9758;48.640;8.148;2023-08-31T10:25:10;21.60;52.50
19248;DHT22;9758;48.640;8.148;2023-08-31T10:27:48;21.60;52.40
19248;DHT22;9758;48.640;8.148;2023-08-31T10:30:34;21.60;52.20
19248;DHT22;9758;48.640;8.148;2023-08-31T10:33:21;21.60;52.30
19248;DHT22;9758;48.640;8.148;2023-08-31T10:35:52;21.50;52.30
19248;DHT22;9758;48.640;8.148;2023-08-31T10:38:27;21.60;52.60
19248;DHT22;9758;48.640;8.148;2023-08-31T10:41:19;21.70;52.00
19248;DHT22;9758;48.640;8.148;2023-08-31T10:43:48;21.70;52.20
19248;DHT22;9758;48.640;8.148;2023-08-31T10:46:18;21.70;52.30
19248;DHT22;9758;48.640;8.148;2023-08-31T10:48:52;21.70;52.40
19248;DHT22;9758;48.640;8.148;2023-08-31T10:51:21;21.80;52.40
19248;DHT22;9758;48.640;8.148;2023-08-31T10:53:48;21.80;51.90
19248;DHT22;9758;48.640;8.148;2023-08-31T10:56:17;21.80;52.10
19248;DHT22;9758;48.640;8.148;2023-08-31T10:58:58;21.80;51.90
19248;DHT22;9758;48.640;8.148;2023-08-31T11:01:54;21.80;51.80
19248;DHT22;9758;48.640;8.148;2023-08-31T11:04:52;21.80;51.70
19248;DHT22;9758;48.640;8.148;2023-08-31T11:07:23;21.80;51.70
19248;DHT22;9758;48.640;8.148;2023-08-31T11:09:50;21.90;51.50
19248;DHT22;9758;48.640;8.148;2023-08-31T11:12:23;21.90;52.00
19248;DHT22;9758;48.640;8.148;2023-08-31T11:14:50;22.00;52.10
19248;DHT22;9758;48.640;8.148;2023-08-31T11:17:17;22.10;52.00
19248;DHT22;9758;48.640;8.148;2023-08-31T11:19:44;22.10;51.70
19248;DHT22;9758;48.640;8.148;2023-08-31T11:22:11;22.20;51.60
19248;DHT22;9758;48.640;8.148;2023-08-31T11:24:38;22.20;51.60
19248;DHT22;9758;48.640;8.148;2023-08-31T11:27:07;22.30;51.50
19248;DHT22;9758;48.640;8.148;2023-08-31T11:29:38;22.20;51.40
19248;DHT22;9758;48.640;8.148;2023-08-31T11:32:06;22.20;51.10
19248;DHT22;9758;48.640;8.148;2023-08-31T11:34:33;22.10;51.20
19248;DHT22;9758;48.640;8.148;2023-08-31T11:37:00;21.90;51.20
19248;DHT22;9758;48.640;8.148;2023-08-31T11:39:27;21.90;51.40
19248;DHT22;9758;48.640;8.148;2023-08-31T11:41:54;21.80;51.40
19248;DHT22;9758;48.640;8.148;2023-08-31T11:44:21;21.80;51.60
19248;DHT22;9758;48.640;8.148;2023-08-31T11:46:50;21.70;51.60
19248;DHT22;9758;48.640;8.148;2023-08-31T11:49:17;21.70;51.40
19248;DHT22;9758;48.640;8.148;2023-08-31T11:51:44;21.60;51.40
19248;DHT22;9758;48.640;8.148;2023-08-31T11:54:12;21.60;51.80
19248;DHT22;9758;48.640;8.148;2023-08-31T11:56:40;21.70;51.90
19248;DHT22;9758;48.640;8.148;2023-08-31T11:59:09;21.80;52.00
19248;DHT22;9758;48.640;8.148;2023-08-31T12:01:41;22.00;51.70
19248;DHT22;9758;48.640;8.148;2023-08-31T12:04:14;22.10;51.70
19248;DHT22;9758;48.640;8.148;2023-08-31T12:06:46;22.20;51.60
19248;DHT22;9758;48.640;8.148;2023-08-31T12:09:13;22.30;51.80
19248;DHT22;9758;48.640;8.148;2023-08-31T12:11:39;22.50;51.50
19248;DHT22;9758;48.640;8.148;2023-08-31T12:14:19;22.70;51.20
19248;DHT22;9758;48.640;8.148;2023-08-31T12:16:46;22.80;50.60
19248;DHT22;9758;48.640;8.148;2023-08-31T12:19:14;22.90;50.90
19248;DHT22;9758;48.640;8.148;2023-08-31T12:21:43;22.90;50.70
19248;DHT22;9758;48.640;8.148;2023-08-31T12:24:10;23.00;50.70
19248;DHT22;9758;48.640;8.148;2023-08-31T12:26:39;22.90;50.40
19248;DHT22;9758;48.640;8.148;2023-08-31T12:29:06;22.90;50.40
19248;DHT22;9758;48.640;8.148;2023-08-31T12:31:32;22.80;50.50
19248;DHT22;9758;48.640;8.148;2023-08-31T12:33:59;22.80;50.50
19248;DHT22;9758;48.640;8.148;2023-08-31T12:36:34;22.70;50.40
19248;DHT22;9758;48.640;8.148;2023-08-31T12:39:03;22.60;50.40
19248;DHT22;9758;48.640;8.148;2023-08-31T12:41:35;22.40;50.40
19248;DHT22;9758;48.640;8.148;2023-08-31T12:44:02;22.30;50.30
19248;DHT22;9758;48.640;8.148;2023-08-31T12:46:30;22.20;50.50
19248;DHT22;9758;48.640;8.148;2023-08-31T12:48:57;22.10;50.50
19248;DHT22;9758;48.640;8.148;2023-08-31T12:51:24;22.00;50.80
19248;DHT22;9758;48.640;8.148;2023-08-31T12:53:52;21.90;51.00
19248;DHT22;9758;48.640;8.148;2023-08-31T12:56:19;21.80;51.00
19248;DHT22;9758;48.640;8.148;2023-08-31T12:58:49;21.80;51.00
19248;DHT22;9758;48.640;8.148;2023-08-31T13:01:17;21.90;51.20
19248;DHT22;9758;48.640;8.148;2023-08-31T13:03:45;22.00;51.50
19248;DHT22;9758;48.640;8.148;2023-08-31T13:06:12;22.10;51.50
19248;DHT22;9758;48.640;8.148;2023-08-31T13:08:39;22.40;51.50
19248;DHT22;9758;48.640;8.148;2023-08-31T13:11:08;22.60;51.20
19248;DHT22;9758;48.640;8.148;2023-08-31T13:13:34;22.80;50.80
19248;DHT22;9758;48.640;8.148;2023-08-31T13:16:01;22.90;50.50
19248;DHT22;9758;48.640;8.148;2023-08-31T13:18:28;22.90;50.30
19248;DHT22;9758;48.640;8.148;2023-08-31T13:20:55;22.80;50.20
19248;DHT22;9758;48.640;8.148;2023-08-31T13:23:22;22.80;50.30
19248;DHT22;9758;48.640;8.148;2023-08-31T13:25:50;22.70;50.10
19248;DHT22;9758;48.640;8.148;2023-08-31T13:28:18;22.70;50.30
19248;DHT22;9758;48.640;8.148;2023-08-31T13:30:45;22.60;50.20
19248;DHT22;9758;48.640;8.148;2023-08-31T13:33:11;22.60;50.40
19248;DHT22;9758;48.640;8.148;2023-08-31T13:35:39;22.60;50.40
19248;DHT22;9758;48.640;8.148;2023-08-31T13:38:05;22.70;50.40
19248;DHT22;9758;48.640;8.148;2023-08-31T13:40:34;22.70;50.60
19248;DHT22;9758;48.640;8.148;2023-08-31T13:43:03;22.80;50.30
19248;DHT22;9758;48.640;8.148;2023-08-31T13:45:32;22.90;50.40
19248;DHT22;9758;48.640;8.148;2023-08-31T13:47:59;23.00;50.20
19248;DHT22;9758;48.640;8.148;2023-08-31T13:50:26;23.00;50.20
19248;DHT22;9758;48.640;8.148;2023-08-31T13:52:53;23.00;50.00
19248;DHT22;9758;48.640;8.148;2023-08-31T13:55:20;23.00;50.00
19248;DHT22;9758;48.640;8.148;2023-08-31T13:57:47;22.90;49.90
19248;DHT22;9758;48.640;8.148;2023-08-31T14:00:15;22.90;50.00
19248;DHT22;9758;48.640;8.148;2023-08-31T14:02:44;22.90;50.00
19248;DHT22;9758;48.640;8.148;2023-08-31T14:05:10;22.80;50.00
19248;DHT22;9758;48.640;8.148;2023-08-31T14:07:37;22.80;49.70
19248;DHT22;9758;48.640;8.148;2023-08-31T14:10:06;22.60;49.70
19248;DHT22;9758;48.640;8.148;2023-08-31T14:12:33;22.50;50.00
19248;DHT22;9758;48.640;8.148;2023-08-31T14:15:00;22.40;50.00
19248;DHT22;9758;48.640;8.148;2023-08-31T14:17:32;22.40;50.00
19248;DHT22;9758;48.640;8.148;2023-08-31T14:20:00;22.30;50.10
19248;DHT22;9758;48.640;8.148;2023-08-31T14:22:31;22.20;50.10
19248;DHT22;9758;48.640;8.148;2023-08-31T14:24:58;22.10;50.20
19248;DHT22;9758;48.640;8.148;2023-08-31T14:27:25;22.10;50.20
19248;DHT22;9758;48.640;8.148;2023-08-31T14:29:52;22.10;50.20
19248;DHT22;9758;48.640;8.148;2023-08-31T14:32:19;22.00;50.10
19248;DHT22;9758;48.640;8.148;2023-08-31T14:34:47;21.90;50.30
19248;DHT22;9758;48.640;8.148;2023-08-31T14:37:15;21.90;50.30
19248;DHT22;9758;48.640;8.148;2023-08-31T14:39:42;21.80;50.20
19248;DHT22;9758;48.640;8.148;2023-08-31T14:42:10;21.80;50.20
19248;DHT22;9758;48.640;8.148;2023-08-31T14:44:37;21.70;50.30
19248;DHT22;9758;48.640;8.148;2023-08-31T14:47:04;21.70;50.40
19248;DHT22;9758;48.640;8.148;2023-08-31T14:49:30;21.70;50.60
19248;DHT22;9758;48.640;8.148;2023-08-31T14:51:57;21.70;50.60
19248;DHT22;9758;48.640;8.148;2023-08-31T14:54:31;21.70;50.70
19248;DHT22;9758;48.640;8.148;2023-08-31T14:56:59;21.70;50.80
19248;DHT22;9758;48.640;8.148;2023-08-31T14:59:26;21.80;50.80
19248;DHT22;9758;48.640;8.148;2023-08-31T15:01:53;21.90;50.80
19248;DHT22;9758;48.640;8.148;2023-08-31T15:04:20;21.90;50.80
19248;DHT22;9758;48.640;8.148;2023-08-31T15:06:47;22.00;50.80
19248;DHT22;9758;48.640;8.148;2023-08-31T15:09:14;22.10;50.80
19248;DHT22;9758;48.640;8.148;2023-08-31T15:11:43;22.10;50.80
19248;DHT22;9758;48.640;8.148;2023-08-31T15:14:10;22.20;50.80
19248;DHT22;9758;48.640;8.148;2023-08-31T15:16:37;22.30;50.80
19248;DHT22;9758;48.640;8.148;2023-08-31T15:19:04;22.30;50.70
19248;DHT22;9758;48.640;8.148;2023-08-31T15:21:31;22.30;50.70
19248;DHT22;9758;48.640;8.148;2023-08-31T15:23:58;22.40;50.70
19248;DHT22;9758;48.640;8.148;2023-08-31T15:26:26;22.40;50.70
19248;DHT22;9758;48.640;8.148;2023-08-31T15:28:54;22.40;50.70
19248;DHT22;9758;48.640;8.148;2023-08-31T15:31:21;22.40;50.70
19248;DHT22;9758;48.640;8.148;2023-08-31T15:33:49;22.40;50.60
19248;DHT22;9758;48.640;8.148;2023-08-31T15:36:16;22.40;50.60
19248;DHT22;9758;48.640;8.148;2023-08-31T15:38:43;22.30;50.60
19248;DHT22;9758;48.640;8.148;2023-08-31T15:41:12;22.30;50.60
19248;DHT22;9758;48.640;8.148;2023-08-31T15:43:39;22.30;50.70
19248;DHT22;9758;48.640;8.148;2023-08-31T15:46:09;22.30;50.70
19248;DHT22;9758;48.640;8.148;2023-08-31T15:48:37;22.20;50.80
19248;DHT22;9758;48.640;8.148;2023-08-31T15:51:04;22.20;50.70
19248;DHT22;9758;48.640;8.148;2023-08-31T15:53:31;22.20;50.80
19248;DHT22;9758;48.640;8.148;2023-08-31T15:55:59;22.10;50.80
19248;DHT22;9758;48.640;8.148;2023-08-31T15:58:26;22.10;51.00
19248;DHT22;9758;48.640;8.148;2023-08-31T16:00:55;22.00;50.90
19248;DHT22;9758;48.640;8.148;2023-08-31T16:03:28;22.00;51.00